Time;durP1;ratioP1;P1;durP2;ratioP2;P2;SDS_P1;SDS_P2;PMS_P1;PMS_P2;Temp;Humidity;BMP_temperature;BMP_pressure;BME280_temperature;BME280_humidity;BME280_pressure;Samples;Min_cycle;Max_cycle;Signal;HPM_P1;HPM_P2
2022/03/30 00:01:20;;;;;;;29.90;13.10;;;5.20;99.90;;;;;;5027119;28;20136;-61
2022/03/30 00:03:46;;;;;;;28.20;13.57;;;5.20;99.90;;;;;;5023937;28;20042;-61
2022/03/30 00:06:11;;;;;;;27.42;13.43;;;5.10;99.90;;;;;;5033057;28;20515;-61
2022/03/30 00:08:37;;;;;;;31.27;13.82;;;5.00;99.90;;;;;;5028476;28;20045;-61
2022/03/30 00:11:02;;;;;;;33.25;13.95;;;5.00;99.90;;;;;;5025328;28;20034;-61
2022/03/30 00:13:28;;;;;;;32.42;13.68;;;5.00;99.90;;;;;;5032688;28;20511;-61
2022/03/30 00:15:54;;;;;;;31.88;13.07;;;5.00;99.90;;;;;;5032929;28;20049;-61
2022/03/30 00:18:20;;;;;;;33.75;13.65;;;4.90;99.90;;;;;;5033311;28;20167;-61
2022/03/30 00:20:46;;;;;;;33.47;14.90;;;4.90;99.90;;;;;;5025061;28;20037;-61
2022/03/30 00:23:12;;;;;;;37.40;15.35;;;4.90;99.90;;;;;;5030894;28;20041;-61
2022/03/30 00:25:37;;;;;;;37.63;14.20;;;4.90;99.90;;;;;;5033062;28;20026;-63
2022/03/30 00:28:04;;;;;;;35.47;14.27;;;4.80;99.90;;;;;;5026711;28;20068;-61
2022/03/30 00:30:31;;;;;;;34.70;14.75;;;4.70;99.90;;;;;;5029679;28;20045;-61
2022/03/30 00:32:56;;;;;;;36.92;14.48;;;4.60;99.90;;;;;;5032427;28;20543;-60
2022/03/30 00:35:22;;;;;;;35.22;14.68;;;4.60;99.90;;;;;;5031364;28;20033;-60
2022/03/30 00:37:48;;;;;;;35.50;15.02;;;4.60;99.90;;;;;;5024572;28;20046;-60
2022/03/30 00:40:16;;;;;;;36.28;15.30;;;4.60;99.90;;;;;;5032593;28;20077;-61
2022/03/30 00:42:42;;;;;;;37.03;14.90;;;4.60;99.90;;;;;;5032817;28;20147;-60
2022/03/30 00:45:13;;;;;;;33.20;14.10;;;4.50;99.90;;;;;;5027084;28;20294;-61
2022/03/30 00:47:39;;;;;;;35.33;15.13;;;4.50;99.90;;;;;;5032246;28;20037;-61
2022/03/30 00:50:07;;;;;;;36.67;15.48;;;4.40;99.90;;;;;;5032601;28;20073;-61
2022/03/30 00:52:33;;;;;;;41.00;14.68;;;4.40;99.90;;;;;;5020268;28;20125;-61
2022/03/30 00:54:59;;;;;;;34.60;15.20;;;4.50;99.90;;;;;;5026635;28;20133;-60
2022/03/30 00:57:26;;;;;;;31.83;15.18;;;4.40;99.90;;;;;;5037418;28;20037;-60
2022/03/30 00:59:52;;;;;;;35.63;15.48;;;4.40;99.90;;;;;;5024356;28;20072;-60
2022/03/30 01:02:20;;;;;;;33.40;14.13;;;4.40;99.90;;;;;;5015703;28;20449;-61
2022/03/30 01:04:46;;;;;;;31.00;14.25;;;4.40;99.90;;;;;;5029284;28;20042;-60
2022/03/30 01:07:14;;;;;;;34.28;15.20;;;4.40;99.90;;;;;;5032615;28;20129;-60
2022/03/30 01:09:40;;;;;;;36.85;14.93;;;4.50;99.90;;;;;;5027325;28;20160;-61
2022/03/30 01:12:10;;;;;;;29.98;13.48;;;4.50;99.90;;;;;;5024868;28;20069;-60
2022/03/30 01:14:37;;;;;;;34.47;12.88;;;4.50;99.90;;;;;;5031627;28;20052;-60
2022/03/30 01:17:04;;;;;;;34.22;13.70;;;4.50;99.90;;;;;;5027387;28;20053;-61
2022/03/30 01:19:31;;;;;;;36.65;13.07;;;4.50;99.90;;;;;;5027608;28;20045;-61
2022/03/30 01:21:57;;;;;;;33.90;14.10;;;4.40;99.90;;;;;;5031855;28;20053;-60
2022/03/30 01:24:22;;;;;;;39.70;14.98;;;4.40;99.90;;;;;;5031849;28;20029;-60
2022/03/30 01:26:48;;;;;;;41.45;16.05;;;4.40;99.90;;;;;;5021678;28;20107;-61
2022/03/30 01:34:43;;;;;;;36.33;14.15;;;4.20;99.90;;;;;;5027796;28;20049;-60
2022/03/30 01:37:11;;;;;;;34.38;15.25;;;4.20;99.90;;;;;;5031486;28;20037;-60
2022/03/30 01:39:36;;;;;;;35.17;14.88;;;4.10;99.90;;;;;;5031535;28;20462;-61
2022/03/30 01:42:02;;;;;;;35.20;14.93;;;4.10;99.90;;;;;;5031717;28;20164;-61
2022/03/30 01:44:28;;;;;;;35.72;14.73;;;4.00;99.90;;;;;;5027439;28;20087;-60
2022/03/30 01:46:54;;;;;;;33.65;15.55;;;4.00;99.90;;;;;;5031140;28;20037;-61
2022/03/30 01:49:21;;;;;;;38.30;15.85;;;4.00;99.90;;;;;;5031448;28;20506;-61
2022/03/30 01:51:53;;;;;;;34.72;14.65;;;4.00;99.90;;;;;;5024298;28;20041;-60
2022/03/30 01:54:22;;;;;;;32.28;14.18;;;3.90;99.90;;;;;;5030892;28;20095;-61
2022/03/30 01:56:49;;;;;;;43.50;15.75;;;3.90;99.90;;;;;;5046696;28;20049;-60
2022/03/30 01:59:15;;;;;;;32.55;15.65;;;3.90;99.90;;;;;;5026273;28;20120;-60
2022/03/30 02:01:41;;;;;;;32.45;13.88;;;3.90;99.90;;;;;;5030744;28;20037;-60
2022/03/30 02:04:07;;;;;;;33.72;14.70;;;3.90;99.90;;;;;;5029705;28;20392;-60
2022/03/30 02:06:34;;;;;;;33.25;14.70;;;3.80;99.90;;;;;;5023162;28;20037;-60
2022/03/30 02:08:59;;;;;;;30.20;14.75;;;3.80;99.90;;;;;;5023892;28;20156;-60
2022/03/30 02:11:26;;;;;;;31.27;14.00;;;3.80;99.90;;;;;;5030591;28;20094;-60
2022/03/30 02:13:55;;;;;;;35.58;14.57;;;3.90;99.90;;;;;;5030940;28;20041;-60
2022/03/30 02:16:20;;;;;;;32.97;14.98;;;3.90;99.90;;;;;;5024893;28;20029;-60
2022/03/30 02:18:46;;;;;;;38.50;15.95;;;3.90;99.90;;;;;;5030419;28;20103;-61
2022/03/30 02:21:12;;;;;;;29.90;13.85;;;3.90;99.90;;;;;;5031003;28;20042;-61
2022/03/30 02:23:39;;;;;;;30.40;14.27;;;3.90;99.90;;;;;;5023562;28;20476;-60
2022/03/30 02:26:05;;;;;;;35.28;14.80;;;3.90;99.90;;;;;;5025742;28;20065;-60
2022/03/30 02:28:30;;;;;;;28.98;13.07;;;4.00;99.90;;;;;;5030657;28;20064;-61
2022/03/30 02:30:56;;;;;;;29.88;12.85;;;4.10;99.90;;;;;;5030461;28;20037;-62
2022/03/30 02:33:23;;;;;;;33.10;14.02;;;4.10;99.90;;;;;;5026545;28;20084;-60
2022/03/30 02:35:50;;;;;;;40.95;16.65;;;4.00;99.90;;;;;;5029370;28;20397;-61
2022/03/30 02:38:16;;;;;;;38.75;17.35;;;4.10;99.90;;;;;;5030411;28;20518;-60
2022/03/30 02:40:41;;;;;;;38.38;16.02;;;4.20;99.90;;;;;;5020685;28;20038;-60
2022/03/30 02:43:07;;;;;;;39.78;15.95;;;4.30;99.90;;;;;;5015992;28;20041;-60
2022/03/30 02:45:33;;;;;;;38.63;15.85;;;4.30;99.90;;;;;;5030488;28;20557;-61
2022/03/30 02:50:44;;;;;;;41.90;16.67;;;4.40;99.90;;;;;;5027467;28;20045;-61
2022/03/30 02:53:10;;;;;;;39.80;17.17;;;4.50;99.90;;;;;;5029667;28;20037;-61
2022/03/30 02:55:35;;;;;;;37.63;15.85;;;4.50;99.90;;;;;;5036547;28;20510;-60
2022/03/30 02:58:01;;;;;;;43.15;18.38;;;4.50;99.90;;;;;;5029627;28;20064;-61
2022/03/30 03:00:27;;;;;;;45.03;16.23;;;4.50;99.90;;;;;;5028683;28;20045;-61
2022/03/30 03:02:53;;;;;;;39.63;17.88;;;4.60;99.90;;;;;;5030235;28;20045;-61
2022/03/30 03:05:19;;;;;;;35.60;16.30;;;4.50;99.90;;;;;;5030479;28;20091;-60
2022/03/30 03:07:44;;;;;;;45.63;17.77;;;4.60;99.90;;;;;;5016695;28;20109;-60
2022/03/30 03:10:10;;;;;;;34.28;15.90;;;4.50;99.90;;;;;;5025203;28;20361;-60
2022/03/30 03:12:36;;;;;;;36.40;16.85;;;4.50;99.90;;;;;;5030202;28;20558;-60
2022/03/30 03:15:02;;;;;;;36.15;15.70;;;4.50;99.90;;;;;;5024538;28;20037;-61
2022/03/30 03:17:27;;;;;;;32.28;16.35;;;4.40;99.90;;;;;;5028590;28;20088;-61
2022/03/30 03:19:53;;;;;;;37.00;16.90;;;4.40;99.90;;;;;;5030149;28;20500;-61
2022/03/30 03:22:19;;;;;;;36.05;15.73;;;4.40;99.90;;;;;;5030080;28;20129;-61
2022/03/30 03:24:44;;;;;;;33.92;15.20;;;4.30;99.90;;;;;;5012404;28;20366;-61
2022/03/30 03:27:10;;;;;;;32.33;15.23;;;4.30;99.90;;;;;;5023659;28;20029;-61
2022/03/30 03:29:35;;;;;;;30.83;14.75;;;4.30;99.90;;;;;;5028850;28;20042;-61
2022/03/30 03:32:01;;;;;;;30.13;15.20;;;4.30;99.90;;;;;;5027153;28;20033;-61
2022/03/30 03:34:26;;;;;;;38.58;16.83;;;4.30;99.90;;;;;;5029527;28;20129;-60
2022/03/30 03:36:52;;;;;;;35.08;15.27;;;4.30;99.90;;;;;;5029842;28;20088;-61
2022/03/30 03:39:17;;;;;;;39.63;17.52;;;4.40;99.90;;;;;;5025148;28;20088;-61
2022/03/30 03:41:43;;;;;;;39.38;16.75;;;4.40;99.90;;;;;;5018492;28;20078;-61
2022/03/30 03:44:09;;;;;;;48.50;19.00;;;4.50;99.90;;;;;;5021404;28;20549;-61
2022/03/30 03:46:35;;;;;;;38.08;16.30;;;4.60;99.90;;;;;;5014617;28;20560;-61
2022/03/30 03:49:01;;;;;;;37.13;17.38;;;4.60;99.90;;;;;;5028603;28;20528;-61
2022/03/30 03:51:26;;;;;;;39.70;15.90;;;4.60;99.90;;;;;;5031952;28;20112;-62
2022/03/30 03:53:52;;;;;;;42.25;18.00;;;4.60;99.90;;;;;;5032025;28;20527;-61
2022/03/30 03:56:18;;;;;;;42.17;19.20;;;4.60;99.90;;;;;;5027306;28;20103;-61
2022/03/30 03:58:43;;;;;;;40.17;17.05;;;4.70;99.90;;;;;;5030441;28;20043;-61
2022/03/30 04:01:09;;;;;;;37.22;16.92;;;4.70;99.90;;;;;;5023758;28;20161;-61
2022/03/30 04:03:34;;;;;;;44.05;17.00;;;4.80;99.90;;;;;;5024940;28;20038;-62
2022/03/30 04:06:00;;;;;;;39.95;18.48;;;4.80;99.90;;;;;;5023407;28;20034;-62
2022/03/30 04:08:25;;;;;;;45.50;18.80;;;4.80;99.90;;;;;;5033010;28;20043;-62
2022/03/30 04:10:51;;;;;;;43.00;18.48;;;4.80;99.90;;;;;;5033339;28;20084;-61
2022/03/30 04:13:17;;;;;;;47.42;18.40;;;4.80;99.90;;;;;;5024712;28;20048;-61
2022/03/30 04:15:43;;;;;;;40.25;17.33;;;4.80;99.90;;;;;;5032687;28;20037;-61
2022/03/30 04:18:08;;;;;;;44.92;18.33;;;4.80;99.90;;;;;;5032088;28;20041;-61
2022/03/30 04:20:34;;;;;;;38.22;17.65;;;4.80;99.90;;;;;;5023079;28;20053;-61
2022/03/30 04:23:00;;;;;;;36.58;16.17;;;4.80;99.90;;;;;;5018079;28;20610;-62
2022/03/30 04:25:26;;;;;;;43.45;18.52;;;4.90;99.90;;;;;;5027786;28;20392;-61
2022/03/30 04:27:53;;;;;;;42.40;18.42;;;4.90;99.90;;;;;;5026079;28;20041;-61
2022/03/30 04:30:20;;;;;;;39.78;17.25;;;5.00;99.90;;;;;;5032858;28;20041;-61
2022/03/30 04:32:47;;;;;;;42.47;18.13;;;5.00;99.90;;;;;;5032770;28;20038;-61
2022/03/30 04:35:14;;;;;;;38.45;16.88;;;5.00;99.90;;;;;;5017627;28;20145;-61
2022/03/30 04:37:40;;;;;;;36.42;17.38;;;5.10;99.90;;;;;;5024014;28;20053;-61
2022/03/30 04:40:07;;;;;;;40.47;16.00;;;5.10;99.90;;;;;;5032481;28;20041;-61
2022/03/30 04:42:33;;;;;;;35.40;16.52;;;5.10;99.90;;;;;;5032588;28;20111;-62
2022/03/30 04:44:59;;;;;;;38.00;16.25;;;5.10;99.90;;;;;;5032628;28;20404;-61
2022/03/30 04:47:24;;;;;;;39.47;17.25;;;5.20;99.90;;;;;;5025071;28;20440;-61
2022/03/30 04:49:50;;;;;;;35.40;16.45;;;5.20;99.90;;;;;;5032005;28;20439;-62
2022/03/30 04:52:15;;;;;;;37.75;16.25;;;5.20;99.90;;;;;;5032482;28;20056;-61
2022/03/30 04:54:41;;;;;;;41.67;17.08;;;5.20;99.90;;;;;;5028447;28;20044;-62
2022/03/30 04:57:07;;;;;;;35.60;17.30;;;5.20;99.90;;;;;;5029989;28;20061;-61
2022/03/30 04:59:32;;;;;;;42.03;17.65;;;5.20;99.90;;;;;;5032288;28;20041;-61
2022/03/30 05:01:59;;;;;;;34.28;16.42;;;5.30;99.90;;;;;;5027024;28;20038;-62
2022/03/30 05:04:24;;;;;;;43.15;16.35;;;5.20;99.90;;;;;;5031068;28;20034;-61
2022/03/30 05:06:50;;;;;;;40.78;17.15;;;5.30;99.90;;;;;;5032231;28;20037;-62
2022/03/30 05:09:16;;;;;;;43.20;17.63;;;5.20;99.90;;;;;;5024944;28;20045;-62
2022/03/30 05:11:42;;;;;;;36.83;16.98;;;5.30;99.90;;;;;;5011916;28;20041;-62
2022/03/30 05:14:07;;;;;;;39.08;16.02;;;5.30;99.90;;;;;;5028586;28;20178;-61
2022/03/30 05:16:34;;;;;;;42.08;17.33;;;5.30;99.90;;;;;;5029132;28;20049;-62
2022/03/30 05:19:01;;;;;;;43.78;18.42;;;5.30;99.90;;;;;;5026480;28;20041;-61
2022/03/30 05:21:26;;;;;;;45.90;16.90;;;5.30;99.90;;;;;;5022493;28;20057;-61
2022/03/30 05:23:52;;;;;;;42.92;17.23;;;5.30;99.90;;;;;;5028198;28;20045;-62
2022/03/30 05:26:18;;;;;;;48.13;17.35;;;5.30;99.90;;;;;;5028725;28;20684;-62
2022/03/30 05:28:43;;;;;;;47.53;17.95;;;5.40;99.90;;;;;;5023230;28;20073;-62
2022/03/30 05:31:09;;;;;;;42.20;16.80;;;5.40;99.90;;;;;;5028346;28;20049;-61
2022/03/30 05:33:35;;;;;;;34.40;17.33;;;5.40;99.90;;;;;;5027851;28;20132;-62
2022/03/30 05:36:01;;;;;;;38.15;15.95;;;5.40;99.90;;;;;;5027412;28;20120;-61
2022/03/30 05:38:27;;;;;;;40.53;15.95;;;5.40;99.90;;;;;;5018365;28;20044;-61
2022/03/30 05:40:53;;;;;;;41.58;17.48;;;5.40;99.90;;;;;;5029768;28;20068;-62
2022/03/30 05:43:18;;;;;;;38.53;16.58;;;5.50;99.90;;;;;;5026761;28;23680;-61
2022/03/30 05:45:44;;;;;;;36.45;15.60;;;5.50;99.90;;;;;;5023869;28;20041;-62
2022/03/30 05:48:10;;;;;;;47.28;15.45;;;5.50;99.90;;;;;;5031090;28;20052;-62
2022/03/30 05:50:35;;;;;;;39.30;15.77;;;5.50;99.90;;;;;;5031604;28;20090;-61
2022/03/30 05:53:01;;;;;;;36.22;14.68;;;5.50;99.90;;;;;;5027505;28;20069;-62
2022/03/30 05:55:27;;;;;;;34.35;15.60;;;5.50;99.90;;;;;;5033676;28;20052;-62
2022/03/30 05:57:52;;;;;;;37.63;16.40;;;5.60;99.90;;;;;;5032127;28;20041;-62
2022/03/30 06:00:18;;;;;;;38.97;15.45;;;5.60;99.90;;;;;;5026236;28;20458;-61
2022/03/30 06:02:44;;;;;;;38.00;13.90;;;5.50;99.90;;;;;;5013752;28;20116;-61
2022/03/30 06:05:10;;;;;;;35.50;14.13;;;5.60;99.90;;;;;;5030984;28;20079;-61
2022/03/30 06:07:36;;;;;;;31.30;14.75;;;5.60;99.90;;;;;;5024543;28;20056;-62
2022/03/30 06:10:02;;;;;;;24.48;11.00;;;5.60;99.90;;;;;;5021840;28;20172;-61
2022/03/30 06:12:27;;;;;;;17.80;8.93;;;5.60;99.90;;;;;;5030593;28;20136;-62
2022/03/30 06:14:53;;;;;;;24.52;8.45;;;5.60;99.90;;;;;;5027733;28;20142;-61
2022/03/30 06:17:20;;;;;;;16.80;6.82;;;5.60;99.90;;;;;;5025962;28;20484;-62
2022/03/30 06:19:48;;;;;;;26.95;11.00;;;5.60;99.90;;;;;;5028685;28;20048;-61
2022/03/30 06:22:14;;;;;;;19.92;8.55;;;5.60;99.90;;;;;;5030869;28;20029;-62
2022/03/30 06:24:41;;;;;;;21.30;8.88;;;5.70;99.90;;;;;;5030383;28;20048;-62
2022/03/30 06:27:09;;;;;;;21.77;6.53;;;5.70;99.90;;;;;;5024956;28;20037;-61
2022/03/30 06:29:35;;;;;;;18.75;8.00;;;5.70;99.90;;;;;;5030645;28;20033;-61
2022/03/30 06:32:02;;;;;;;16.45;8.50;;;5.80;99.90;;;;;;5010937;28;20041;-62
2022/03/30 06:39:39;;;;;;;12.57;5.38;;;5.90;99.90;;;;;;5096333;23;20057;-63
2022/03/30 06:58:10;;;;;;;8.43;4.65;;;6.10;99.90;;;;;;5378102;22;20153;-62
2022/03/30 07:00:36;;;;;;;6.93;4.13;;;6.10;99.90;;;;;;5036988;28;20041;-62
2022/03/30 07:03:01;;;;;;;6.75;3.75;;;6.10;99.90;;;;;;5049119;28;20029;-62
2022/03/30 07:05:27;;;;;;;6.90;3.78;;;6.10;99.90;;;;;;5050567;28;20033;-62
2022/03/30 07:10:31;;;;;;;5.25;3.05;;;6.30;99.90;;;;;;5693239;22;20045;-62
2022/03/30 07:12:57;;;;;;;4.18;2.42;;;6.40;99.90;;;;;;5027046;28;20041;-62
2022/03/30 07:15:23;;;;;;;4.07;2.65;;;6.50;99.90;;;;;;5021496;28;20107;-62
2022/03/30 07:17:54;;;;;;;4.45;3.05;;;6.50;99.90;;;;;;5021768;28;20049;-62
2022/03/30 07:20:22;;;;;;;4.93;3.20;;;6.60;99.90;;;;;;5033689;28;20088;-62
2022/03/30 07:22:49;;;;;;;7.07;3.22;;;6.60;99.90;;;;;;5030930;28;20033;-62
2022/03/30 07:25:16;;;;;;;6.10;3.75;;;6.70;99.90;;;;;;5022709;28;20037;-62
2022/03/30 07:27:53;;;;;;;5.63;3.42;;;6.80;99.90;;;;;;5032943;28;20038;-62
2022/03/30 07:30:20;;;;;;;6.63;4.15;;;6.80;99.90;;;;;;5032736;28;20396;-62
2022/03/30 07:32:47;;;;;;;6.47;3.83;;;6.90;99.90;;;;;;5029892;28;24241;-63
2022/03/30 07:35:16;;;;;;;5.82;3.55;;;6.90;99.90;;;;;;5031028;28;20030;-63
2022/03/30 07:37:42;;;;;;;6.00;4.30;;;6.90;99.90;;;;;;5021178;28;20033;-63
2022/03/30 07:40:09;;;;;;;5.40;4.00;;;7.00;99.90;;;;;;5024002;28;20396;-63
2022/03/30 07:42:35;;;;;;;5.00;3.50;;;7.10;99.90;;;;;;5018946;28;20054;-63
2022/03/30 07:45:04;;;;;;;4.50;3.20;;;7.10;99.90;;;;;;5020356;28;20061;-63
2022/03/30 07:47:31;;;;;;;3.78;2.75;;;7.20;99.90;;;;;;5029288;28;20515;-63
2022/03/30 07:49:57;;;;;;;3.08;2.20;;;7.30;99.90;;;;;;5032914;28;20506;-63
2022/03/30 07:52:23;;;;;;;3.85;2.22;;;7.30;99.90;;;;;;5024867;28;20046;-63
2022/03/30 07:54:49;;;;;;;2.35;1.80;;;7.30;99.90;;;;;;5031436;28;20048;-63
2022/03/30 07:57:15;;;;;;;3.90;2.08;;;7.30;99.90;;;;;;5036478;28;20045;-63
2022/03/30 07:59:41;;;;;;;2.67;2.00;;;7.30;99.90;;;;;;5028469;28;20112;-63
2022/03/30 08:02:08;;;;;;;2.30;1.88;;;7.40;99.90;;;;;;5022280;28;20116;-63
2022/03/30 08:04:33;;;;;;;3.30;1.83;;;7.40;99.90;;;;;;5025353;28;20618;-63
2022/03/30 08:06:59;;;;;;;2.90;1.88;;;7.40;99.90;;;;;;5030692;28;20116;-64
2022/03/30 08:09:24;;;;;;;1.95;1.73;;;7.50;99.90;;;;;;5032880;28;20045;-63
2022/03/30 08:11:50;;;;;;;3.17;1.90;;;7.50;99.90;;;;;;5025695;28;20125;-63
2022/03/30 08:14:16;;;;;;;3.85;2.13;;;7.50;99.90;;;;;;5027178;28;20033;-63
2022/03/30 08:16:41;;;;;;;3.58;2.38;;;7.50;99.90;;;;;;5031247;28;20084;-63
2022/03/30 08:19:08;;;;;;;3.05;2.05;;;7.50;99.90;;;;;;5033035;28;20037;-63
2022/03/30 08:24:19;;;;;;;4.75;1.70;;;7.40;99.90;;;;;;5027266;28;20041;-63
2022/03/30 08:26:45;;;;;;;2.92;1.90;;;7.40;99.90;;;;;;5032462;28;20081;-63
2022/03/30 08:29:11;;;;;;;2.13;1.73;;;7.40;99.90;;;;;;5031914;28;20072;-63
2022/03/30 08:31:37;;;;;;;4.00;1.90;;;7.40;99.90;;;;;;5015610;28;20045;-64
2022/03/30 08:34:03;;;;;;;2.78;1.80;;;7.50;99.90;;;;;;5025555;28;20116;-63
2022/03/30 08:36:29;;;;;;;2.95;1.92;;;7.40;99.90;;;;;;5032793;28;20030;-63
2022/03/30 08:38:59;;;;;;;3.20;2.10;;;7.40;99.90;;;;;;5032659;28;20049;-63
2022/03/30 08:41:25;;;;;;;4.20;1.85;;;7.50;99.90;;;;;;5025769;28;20053;-63
2022/03/30 08:43:52;;;;;;;3.00;1.60;;;7.50;99.90;;;;;;5030911;28;20041;-63
2022/03/30 08:46:18;;;;;;;3.10;2.30;;;7.50;99.90;;;;;;5032243;28;20056;-63
2022/03/30 08:48:43;;;;;;;4.30;1.80;;;7.40;99.90;;;;;;5018600;28;20033;-63
2022/03/30 08:51:10;;;;;;;5.20;2.30;;;7.50;99.90;;;;;;5032071;28;20431;-63
2022/03/30 08:53:36;;;;;;;5.03;2.50;;;7.50;99.90;;;;;;5031987;28;20045;-64
2022/03/30 08:56:02;;;;;;;5.28;3.30;;;7.50;99.90;;;;;;5029042;28;20104;-63
2022/03/30 08:58:28;;;;;;;2.70;2.25;;;7.60;99.90;;;;;;5019430;28;20124;-64
2022/03/30 09:01:05;;;;;;;3.58;2.17;;;7.60;99.90;;;;;;5030852;28;20052;-63
2022/03/30 09:03:31;;;;;;;3.13;2.45;;;7.80;99.90;;;;;;5028645;28;20041;-64
2022/03/30 09:05:56;;;;;;;3.60;1.90;;;8.00;99.90;;;;;;5030511;28;20453;-64
2022/03/30 09:08:25;;;;;;;3.67;2.05;;;8.10;99.90;;;;;;5023325;28;20040;-64
2022/03/30 09:10:53;;;;;;;2.33;1.65;;;8.10;99.90;;;;;;5026656;28;20068;-63
2022/03/30 09:13:20;;;;;;;2.15;1.40;;;8.00;99.90;;;;;;5031721;28;20040;-63
2022/03/30 09:15:50;;;;;;;3.97;2.30;;;7.80;99.90;;;;;;5028159;28;20125;-63
2022/03/30 09:18:16;;;;;;;3.30;2.15;;;7.80;99.90;;;;;;5025609;28;20117;-64
2022/03/30 09:20:48;;;;;;;4.32;2.20;;;8.00;99.90;;;;;;5027894;28;20041;-63
2022/03/30 09:23:14;;;;;;;;;;;8.00;99.90;;;;;;5025529;28;20116;-63
2022/03/30 09:25:44;;;;;;;4.70;2.53;;;8.00;99.90;;;;;;5027775;28;19918;-64
2022/03/30 09:28:10;;;;;;;5.65;2.50;;;8.10;99.90;;;;;;5026920;28;20039;-64
2022/03/30 09:30:36;;;;;;;5.82;2.83;;;8.20;99.90;;;;;;5030981;28;20622;-63
2022/03/30 09:33:02;;;;;;;4.68;2.78;;;8.30;99.90;;;;;;5031470;28;20038;-63
2022/03/30 09:35:41;;;;;;;5.85;2.90;;;8.40;99.90;;;;;;5025104;28;20037;-64
2022/03/30 09:38:12;;;;;;;7.35;3.10;;;8.50;99.90;;;;;;5024749;28;20431;-63
2022/03/30 09:40:45;;;;;;;5.18;2.50;;;8.60;99.90;;;;;;5030871;28;20050;-63
2022/03/30 09:43:12;;;;;;;4.75;2.90;;;8.70;99.90;;;;;;5030291;28;20083;-63
2022/03/30 09:45:38;;;;;;;3.63;2.42;;;8.90;99.90;;;;;;5023254;28;20041;-63
2022/03/30 09:48:14;;;;;;;5.60;2.40;;;9.00;99.90;;;;;;5031293;28;20022;-63
2022/03/30 09:50:45;;;;;;;5.43;2.15;;;9.10;99.90;;;;;;5031356;28;20048;-63
2022/03/30 09:53:13;;;;;;;4.18;1.98;;;9.00;99.90;;;;;;5025107;28;20123;-64
2022/03/30 09:56:15;;;;;;;3.35;1.95;;;9.10;99.90;;;;;;5030297;28;20115;-64
2022/03/30 09:58:42;;;;;;;2.65;1.77;;;9.30;99.90;;;;;;4969631;28;20081;-63
2022/03/30 10:01:09;;;;;;;5.10;2.30;;;9.10;99.90;;;;;;5016533;28;20481;-63
2022/03/30 10:03:38;;;;;;;2.63;2.13;;;9.10;99.90;;;;;;5018598;28;20119;-64
2022/03/30 10:06:05;;;;;;;3.63;2.05;;;9.20;99.90;;;;;;5023438;28;20034;-63
2022/03/30 10:08:33;;;;;;;4.20;2.42;;;9.30;99.90;;;;;;5031079;28;20111;-63
2022/03/30 10:10:59;;;;;;;4.45;2.28;;;9.40;99.90;;;;;;5023546;28;20099;-64
2022/03/30 10:13:25;;;;;;;4.70;2.10;;;9.60;99.90;;;;;;5030296;28;20080;-64
2022/03/30 10:15:52;;;;;;;8.45;2.30;;;9.70;99.90;;;;;;5030892;28;20641;-64
2022/03/30 10:18:19;;;;;;;2.20;1.73;;;9.70;99.90;;;;;;5025015;28;20098;-64
2022/03/30 10:20:48;;;;;;;2.10;1.50;;;9.60;99.90;;;;;;5018763;28;20132;-63
2022/03/30 10:23:30;;;;;;;3.70;1.70;;;9.40;99.90;;;;;;5030210;28;20488;-64
2022/03/30 10:26:08;;;;;;;4.50;2.13;;;9.30;99.90;;;;;;5031041;28;20400;-63
2022/03/30 10:28:39;;;;;;;3.63;1.95;;;9.40;99.90;;;;;;5023031;28;20029;-64
2022/03/30 10:31:05;;;;;;;4.90;2.40;;;9.60;99.90;;;;;;5023027;28;20407;-63
2022/03/30 10:33:42;;;;;;;7.60;2.17;;;9.80;99.90;;;;;;5030179;28;20037;-64
2022/03/30 10:36:27;;;;;;;4.63;2.00;;;9.80;99.90;;;;;;5025238;28;20947;-64
2022/03/30 10:39:26;;;;;;;2.95;1.70;;;9.90;99.90;;;;;;5022242;28;20395;-64
2022/03/30 10:42:07;;;;;;;6.68;2.17;;;9.90;99.90;;;;;;5030271;28;20084;-63
2022/03/30 10:44:42;;;;;;;5.65;1.77;;;9.80;99.90;;;;;;5024022;28;20428;-64
2022/03/30 10:47:20;;;;;;;7.22;2.20;;;9.70;99.90;;;;;;5026347;28;20025;-63
2022/03/30 10:49:54;;;;;;;5.80;2.00;;;9.50;99.90;;;;;;5030391;28;20045;-63
2022/03/30 10:52:35;;;;;;;4.93;2.10;;;9.50;99.90;;;;;;5025993;28;20088;-64
2022/03/30 10:55:12;;;;;;;4.70;2.25;;;9.60;99.90;;;;;;5018085;28;20038;-64
2022/03/30 10:57:49;;;;;;;6.95;2.33;;;9.60;99.90;;;;;;5032984;28;20644;-64
2022/03/30 11:00:23;;;;;;;7.55;2.47;;;9.60;99.90;;;;;;5026048;28;20064;-64
2022/03/30 11:02:49;;;;;;;3.22;1.88;;;9.80;99.90;;;;;;5027349;28;20048;-64
2022/03/30 11:05:29;;;;;;;4.47;2.00;;;9.90;99.90;;;;;;5028960;28;20041;-64
2022/03/30 11:07:55;;;;;;;7.80;2.10;;;9.80;99.90;;;;;;5024675;28;20051;-64
2022/03/30 11:10:47;;;;;;;2.67;1.40;;;9.70;99.90;;;;;;5026215;28;20034;-64
2022/03/30 11:13:22;;;;;;;2.75;1.80;;;9.70;99.90;;;;;;5023239;28;20033;-64
2022/03/30 11:15:59;;;;;;;4.45;2.00;;;9.60;99.90;;;;;;5030695;28;20123;-64
2022/03/30 11:18:28;;;;;;;3.53;2.13;;;9.60;99.90;;;;;;5019439;28;20049;-64
2022/03/30 11:21:09;;;;;;;5.25;2.13;;;9.80;99.90;;;;;;5029586;28;20073;-64
2022/03/30 11:24:02;;;;;;;4.25;2.13;;;10.00;99.90;;;;;;5029817;28;20050;-64
2022/03/30 11:26:49;;;;;;;3.97;2.30;;;10.30;99.90;;;;;;5027863;28;20083;-64
2022/03/30 11:29:39;;;;;;;4.53;2.20;;;10.40;99.90;;;;;;5027514;28;20541;-64
2022/03/30 11:32:23;;;;;;;4.15;1.95;;;10.40;99.90;;;;;;5022448;28;20419;-64
2022/03/30 11:34:57;;;;;;;5.43;2.60;;;10.40;99.90;;;;;;5019585;28;20041;-64
2022/03/30 11:37:47;;;;;;;5.47;2.17;;;10.30;99.90;;;;;;5026757;28;20041;-64
2022/03/30 11:40:14;;;;;;;3.72;2.08;;;10.20;99.90;;;;;;5029489;28;20076;-64
2022/03/30 11:42:52;;;;;;;4.30;2.03;;;10.00;99.90;;;;;;5023948;28;20038;-64
2022/03/30 11:45:23;;;;;;;3.13;2.05;;;9.90;99.90;;;;;;5028020;28;20052;-63
2022/03/30 11:47:54;;;;;;;3.17;2.10;;;9.70;99.90;;;;;;5028643;28;20060;-64
2022/03/30 11:50:32;;;;;;;3.50;2.10;;;9.60;99.90;;;;;;5025028;28;20048;-64
2022/03/30 11:53:05;;;;;;;5.40;2.30;;;9.60;99.90;;;;;;5016782;28;20119;-64
2022/03/30 11:55:33;;;;;;;1.95;1.65;;;9.70;99.90;;;;;;5034888;28;20044;-64
2022/03/30 11:58:00;;;;;;;3.78;2.20;;;9.80;99.90;;;;;;5050024;28;20037;-64
2022/03/30 12:00:28;;;;;;;5.70;2.13;;;9.80;99.90;;;;;;5018356;28;20049;-64
2022/03/30 12:02:57;;;;;;;5.80;1.90;;;9.80;99.90;;;;;;5028104;28;20568;-64
2022/03/30 12:05:23;;;;;;;5.18;2.03;;;9.70;99.90;;;;;;5031782;28;20137;-64
2022/03/30 12:07:54;;;;;;;3.55;1.90;;;9.70;99.90;;;;;;5021451;28;20052;-64
2022/03/30 12:10:20;;;;;;;2.33;1.75;;;9.70;99.90;;;;;;5032618;28;20048;-64
2022/03/30 12:12:49;;;;;;;4.65;1.90;;;9.70;99.90;;;;;;5033126;28;20052;-64
2022/03/30 12:15:16;;;;;;;4.85;1.98;;;9.70;99.90;;;;;;5033340;28;20484;-64
2022/03/30 12:17:48;;;;;;;2.70;1.75;;;9.60;99.90;;;;;;5021308;28;20381;-63
2022/03/30 12:20:22;;;;;;;4.60;2.10;;;9.60;99.90;;;;;;5032686;28;20474;-64
2022/03/30 12:22:54;;;;;;;4.68;2.17;;;9.50;99.90;;;;;;5027509;28;20052;-64
2022/03/30 12:25:20;;;;;;;6.88;2.10;;;9.60;99.90;;;;;;5025827;28;20040;-65
2022/03/30 12:27:46;;;;;;;3.55;1.85;;;9.70;99.90;;;;;;5032671;28;20099;-64
2022/03/30 12:30:11;;;;;;;2.85;1.90;;;9.80;99.90;;;;;;5032854;28;20029;-65
2022/03/30 12:32:37;;;;;;;5.93;2.25;;;9.90;99.90;;;;;;5031520;28;20630;-65
2022/03/30 12:35:15;;;;;;;4.72;1.90;;;9.90;99.90;;;;;;5030974;28;20038;-65
2022/03/30 12:37:43;;;;;;;5.47;1.73;;;10.10;99.90;;;;;;5031222;28;20045;-65
2022/03/30 12:40:16;;;;;;;6.00;1.80;;;10.10;99.90;;;;;;5021081;28;20045;-65
2022/03/30 12:42:44;;;;;;;1.92;1.50;;;10.40;99.90;;;;;;5016754;28;20056;-65
2022/03/30 12:45:14;;;;;;;3.05;1.58;;;10.40;99.90;;;;;;5032796;28;20037;-64
2022/03/30 12:47:54;;;;;;;2.50;1.70;;;10.60;99.90;;;;;;5031596;28;20117;-65
2022/03/30 12:50:27;;;;;;;4.15;1.75;;;10.80;99.90;;;;;;5028345;28;20529;-65
2022/03/30 12:52:54;;;;;;;3.20;1.70;;;10.70;99.20;;;;;;5030535;28;20042;-65
2022/03/30 12:55:32;;;;;;;2.47;1.45;;;10.80;99.90;;;;;;5031029;28;20041;-66
2022/03/30 12:58:23;;;;;;;5.22;1.50;;;10.70;99.70;;;;;;5025082;28;20037;-64
2022/03/30 13:00:51;;;;;;;2.72;1.30;;;10.70;95.80;;;;;;5031833;28;20038;-64
2022/03/30 13:03:20;;;;;;;2.58;1.48;;;10.80;98.70;;;;;;5032216;28;20042;-66
2022/03/30 13:05:48;;;;;;;3.05;1.40;;;10.90;98.60;;;;;;5022741;28;20507;-65
2022/03/30 13:08:19;;;;;;;2.60;1.50;;;11.10;99.30;;;;;;5026150;28;20625;-65
2022/03/30 13:10:55;;;;;;;3.38;1.50;;;11.10;98.30;;;;;;5073388;22;20044;-65
2022/03/30 13:13:26;;;;;;;2.50;1.40;;;11.10;96.40;;;;;;5011858;28;20120;-65
2022/03/30 13:16:02;;;;;;;5.45;1.60;;;11.10;98.60;;;;;;5016693;28;20034;-65
2022/03/30 13:18:28;;;;;;;2.58;1.60;;;11.00;99.90;;;;;;5011862;28;20034;-65
2022/03/30 13:20:56;;;;;;;3.83;1.52;;;10.90;99.30;;;;;;5011442;28;20177;-63
2022/03/30 13:23:37;;;;;;;2.63;1.70;;;10.80;99.60;;;;;;5011701;28;20080;-63
2022/03/30 13:32:19;;;;;;;8.32;1.83;;;10.80;97.70;;;;;;5067107;22;20053;-65